Time;durP1;ratioP1;P1;durP2;ratioP2;P2;SDS_P1;SDS_P2;PMS_P1;PMS_P2;Temp;Humidity;BMP_temperature;BMP_pressure;BME280_temperature;BME280_humidity;BME280_pressure;Samples;Min_cycle;Max_cycle;Signal;HPM_P1;HPM_P2
2022/11/03 00:02:24;;;;;;;10.30;2.17;;;9.70;99.90;;;;;;5019097;28;20665;-82
2022/11/03 00:04:50;;;;;;;7.97;2.60;;;9.70;99.90;;;;;;5036073;28;20171;-84
2022/11/03 00:07:20;;;;;;;9.17;3.03;;;9.70;99.90;;;;;;5036388;28;20208;-84
2022/11/03 00:09:46;;;;;;;9.88;2.63;;;9.70;99.90;;;;;;5019637;28;20244;-84
2022/11/03 00:12:11;;;;;;;10.73;2.10;;;9.70;99.90;;;;;;5035854;28;20634;-83
2022/11/03 00:14:37;;;;;;;8.20;2.20;;;9.80;99.90;;;;;;5036101;28;20208;-83
2022/11/03 00:17:02;;;;;;;5.73;2.00;;;9.80;99.90;;;;;;5019633;28;20179;-79
2022/11/03 00:19:28;;;;;;;5.00;2.23;;;9.80;99.90;;;;;;5035169;28;20633;-83
2022/11/03 00:21:53;;;;;;;7.00;2.70;;;9.90;99.90;;;;;;5035160;28;20184;-82
2022/11/03 00:24:19;;;;;;;10.20;2.20;;;9.90;99.90;;;;;;5036739;28;20244;-82
2022/11/03 00:26:45;;;;;;;8.23;2.83;;;9.90;99.90;;;;;;5036010;28;20182;-82
2022/11/03 00:29:12;;;;;;;6.00;1.97;;;9.80;99.90;;;;;;5034810;28;20178;-83
2022/11/03 00:31:40;;;;;;;5.80;2.17;;;9.90;99.90;;;;;;5035631;28;20214;-82
2022/11/03 00:34:07;;;;;;;10.15;2.60;;;9.90;99.90;;;;;;5035685;28;20189;-82
2022/11/03 00:36:42;;;;;;;5.65;2.33;;;9.90;99.90;;;;;;5035583;28;20550;-82
2022/11/03 00:39:08;;;;;;;13.13;2.70;;;9.90;99.90;;;;;;5047342;28;20593;-85
2022/11/03 00:41:34;;;;;;;8.90;2.20;;;10.00;99.90;;;;;;5057027;28;20177;-82
2022/11/03 00:44:00;;;;;;;10.33;2.30;;;10.00;99.90;;;;;;5055247;28;20661;-83
2022/11/03 00:46:29;;;;;;;10.03;3.50;;;10.00;99.90;;;;;;5055440;28;20192;-83
2022/11/03 00:48:54;;;;;;;5.85;2.47;;;10.00;99.90;;;;;;5057312;28;20176;-83
2022/11/03 00:51:26;;;;;;;9.77;2.97;;;10.00;99.90;;;;;;5038223;28;20198;-83
2022/11/03 00:53:53;;;;;;;9.15;1.80;;;10.10;99.90;;;;;;5056834;28;20196;-83
2022/11/03 00:56:25;;;;;;;7.47;2.13;;;10.10;99.90;;;;;;5056488;28;20545;-83
2022/11/03 00:58:52;;;;;;;4.82;1.67;;;10.10;99.90;;;;;;5055927;28;20177;-81
2022/11/03 01:01:23;;;;;;;6.97;2.45;;;10.10;99.90;;;;;;5054540;28;20581;-82
2022/11/03 01:06:50;;;;;;;7.37;2.20;;;10.10;99.90;;;;;;5056194;28;20541;-83
2022/11/03 01:09:16;;;;;;;14.10;2.55;;;10.10;99.90;;;;;;5054879;28;20445;-81
2022/11/03 01:11:54;;;;;;;7.53;2.20;;;10.10;99.90;;;;;;5055147;28;20316;-81
2022/11/03 01:14:20;;;;;;;6.43;2.58;;;10.10;99.90;;;;;;5056345;28;20640;-81
2022/11/03 01:16:46;;;;;;;8.53;1.83;;;10.10;99.90;;;;;;5056483;28;20193;-81
2022/11/03 01:19:11;;;;;;;6.53;2.67;;;10.10;99.90;;;;;;5056208;28;20177;-81
2022/11/03 01:21:37;;;;;;;7.30;2.37;;;10.10;99.90;;;;;;5056031;28;20236;-82
2022/11/03 01:24:04;;;;;;;9.70;2.63;;;10.10;99.90;;;;;;5054888;28;20205;-81
2022/11/03 01:26:30;;;;;;;9.35;2.50;;;10.10;99.90;;;;;;5054741;28;20186;-81
2022/11/03 01:28:58;;;;;;;10.33;3.20;;;10.00;99.90;;;;;;5054664;28;20192;-81
2022/11/03 01:31:25;;;;;;;14.88;3.67;;;10.10;99.90;;;;;;5055722;28;20518;-81
2022/11/03 01:33:52;;;;;;;9.93;2.78;;;10.00;99.90;;;;;;5055092;28;20217;-81
2022/11/03 01:36:18;;;;;;;5.93;2.10;;;10.00;99.90;;;;;;5054290;28;20177;-81
2022/11/03 01:38:44;;;;;;;8.10;2.30;;;10.00;99.90;;;;;;5054406;28;20196;-81
2022/11/03 01:41:14;;;;;;;10.10;3.00;;;10.00;99.90;;;;;;5056186;28;20264;-81
2022/11/03 01:43:40;;;;;;;7.95;2.45;;;10.00;99.90;;;;;;5055957;28;20505;-81
2022/11/03 01:46:10;;;;;;;5.65;2.53;;;9.90;99.90;;;;;;5055582;28;20264;-81
2022/11/03 01:48:41;;;;;;;8.07;2.13;;;9.90;99.90;;;;;;5055424;28;20166;-81
2022/11/03 01:51:08;;;;;;;10.50;2.83;;;10.00;99.90;;;;;;5053573;28;20174;-81
2022/11/03 01:53:37;;;;;;;11.10;2.35;;;9.90;99.90;;;;;;5055060;28;20177;-82
2022/11/03 01:56:03;;;;;;;11.77;2.67;;;9.90;99.90;;;;;;5055799;28;20292;-81
2022/11/03 01:58:33;;;;;;;6.40;2.72;;;9.90;99.90;;;;;;5053842;28;20614;-81
2022/11/03 02:00:59;;;;;;;7.88;1.90;;;9.90;99.90;;;;;;5055380;28;20278;-81
2022/11/03 02:03:28;;;;;;;6.60;2.30;;;9.90;99.90;;;;;;5053959;28;20223;-81
2022/11/03 02:05:55;;;;;;;5.82;2.10;;;9.90;99.90;;;;;;5055627;28;20267;-81
2022/11/03 02:08:42;;;;;;;7.25;2.28;;;9.90;99.90;;;;;;5055207;28;20252;-81
2022/11/03 02:13:52;;;;;;;9.70;2.42;;;9.90;99.90;;;;;;5055723;28;20193;-81
2022/11/03 02:16:19;;;;;;;8.73;1.93;;;9.90;99.90;;;;;;5036855;28;20177;-81
2022/11/03 02:18:46;;;;;;;9.30;2.83;;;9.90;99.90;;;;;;5054719;28;20269;-82
2022/11/03 02:21:21;;;;;;;5.85;2.55;;;10.00;99.90;;;;;;5054099;28;20416;-81
2022/11/03 02:23:55;;;;;;;7.65;2.30;;;10.00;99.90;;;;;;5053730;28;20212;-82
2022/11/03 02:26:21;;;;;;;13.10;3.05;;;10.00;99.90;;;;;;5053672;28;20552;-82
2022/11/03 02:28:47;;;;;;;9.67;2.60;;;10.00;99.90;;;;;;5053665;28;20185;-82
2022/11/03 02:31:19;;;;;;;6.20;2.45;;;10.00;99.90;;;;;;5053696;28;20584;-81
2022/11/03 02:34:04;;;;;;;6.15;2.30;;;10.00;99.90;;;;;;5054677;28;20618;-81
2022/11/03 02:36:36;;;;;;;8.88;2.78;;;10.00;99.90;;;;;;5054826;28;20157;-82
2022/11/03 02:39:07;;;;;;;14.70;3.97;;;10.00;99.90;;;;;;5053680;28;20192;-81
2022/11/03 02:41:35;;;;;;;10.95;2.40;;;10.00;99.90;;;;;;5054895;28;20239;-82
2022/11/03 02:44:03;;;;;;;11.80;2.60;;;10.00;99.90;;;;;;5054616;28;20551;-81
2022/11/03 02:46:31;;;;;;;8.95;2.20;;;10.00;99.90;;;;;;5054658;28;20181;-81
2022/11/03 02:48:57;;;;;;;6.70;2.33;;;10.00;99.90;;;;;;5055025;28;20189;-80
2022/11/03 02:51:24;;;;;;;2.80;1.80;;;10.00;99.90;;;;;;5037115;28;20185;-81
2022/11/03 02:54:12;;;;;;;8.40;2.03;;;9.90;99.90;;;;;;5052898;28;20185;-80
2022/11/03 02:56:46;;;;;;;7.13;2.80;;;9.90;99.90;;;;;;5039861;28;20197;-80
2022/11/03 02:59:18;;;;;;;9.32;2.65;;;9.90;99.90;;;;;;5054505;28;20633;-80
2022/11/03 03:01:53;;;;;;;16.73;2.85;;;10.00;99.90;;;;;;5053017;28;20324;-80
2022/11/03 03:04:31;;;;;;;10.73;3.03;;;10.00;99.90;;;;;;5053513;28;20270;-82
2022/11/03 03:07:01;;;;;;;10.65;3.78;;;10.00;99.90;;;;;;5055275;28;20173;-80
2022/11/03 03:09:36;;;;;;;12.00;2.92;;;10.00;99.90;;;;;;5055005;28;20173;-80
2022/11/03 03:12:03;;;;;;;8.50;2.10;;;10.00;99.90;;;;;;5055121;28;20172;-80
2022/11/03 03:14:37;;;;;;;9.70;2.50;;;10.00;99.90;;;;;;5058993;28;20182;-80
2022/11/03 03:17:22;;;;;;;14.15;2.50;;;10.00;99.90;;;;;;5055005;28;20177;-81
2022/11/03 03:20:19;;;;;;;12.55;3.00;;;10.00;99.90;;;;;;5054574;28;20174;-81
2022/11/03 03:23:01;;;;;;;17.77;2.90;;;10.10;99.90;;;;;;5053767;28;20240;-81
2022/11/03 03:25:33;;;;;;;10.85;2.95;;;10.10;99.90;;;;;;5053911;28;20200;-81
2022/11/03 03:28:05;;;;;;;14.63;2.50;;;10.10;99.90;;;;;;5054581;28;20181;-81
2022/11/03 03:30:32;;;;;;;10.73;2.57;;;10.10;99.90;;;;;;5054423;28;20197;-81
2022/11/03 03:33:00;;;;;;;8.07;2.85;;;10.20;99.90;;;;;;5053509;28;20423;-81
2022/11/03 03:35:29;;;;;;;8.02;2.75;;;10.10;99.90;;;;;;5053889;28;20264;-81
2022/11/03 03:38:00;;;;;;;12.73;3.22;;;10.20;99.90;;;;;;5054404;28;20209;-81
2022/11/03 03:40:33;;;;;;;4.30;2.10;;;10.20;99.90;;;;;;5053702;28;20255;-80
2022/11/03 03:43:00;;;;;;;11.50;2.88;;;10.10;99.90;;;;;;5053683;28;20459;-81
2022/11/03 03:45:26;;;;;;;7.93;2.53;;;10.20;99.90;;;;;;5052627;28;20212;-80
2022/11/03 03:47:51;;;;;;;14.53;3.60;;;10.20;99.90;;;;;;5053056;28;20181;-81
2022/11/03 03:50:17;;;;;;;8.40;2.43;;;10.20;99.90;;;;;;5036323;28;20184;-81
2022/11/03 03:52:43;;;;;;;12.32;3.10;;;10.20;99.90;;;;;;5051980;28;20184;-81
2022/11/03 03:55:17;;;;;;;9.37;2.30;;;10.20;99.90;;;;;;5052418;28;20189;-81
2022/11/03 03:57:43;;;;;;;7.43;2.40;;;10.20;99.90;;;;;;5053261;28;20585;-81
2022/11/03 04:00:13;;;;;;;9.27;2.53;;;10.20;99.90;;;;;;5053784;28;20780;-81
2022/11/03 04:02:38;;;;;;;17.85;3.95;;;10.10;99.90;;;;;;5053463;28;20316;-81
2022/11/03 04:05:04;;;;;;;7.37;2.70;;;10.10;99.90;;;;;;5052564;28;20620;-81
2022/11/03 04:07:48;;;;;;;7.70;3.10;;;10.10;99.90;;;;;;5035331;28;20186;-81
2022/11/03 04:10:15;;;;;;;10.80;2.75;;;10.10;99.90;;;;;;5024523;28;20243;-81
2022/11/03 04:23:59;;;;;;;12.27;3.25;;;10.10;99.90;;;;;;5056978;28;20260;-81
2022/11/03 04:26:26;;;;;;;8.23;3.10;;;10.10;99.90;;;;;;5038981;28;20614;-81
2022/11/03 04:28:52;;;;;;;11.75;2.88;;;10.10;99.90;;;;;;5056702;28;20409;-81
2022/11/03 04:31:19;;;;;;;10.40;2.80;;;10.20;99.90;;;;;;5057137;28;20181;-81
2022/11/03 04:33:46;;;;;;;5.85;2.55;;;10.10;99.90;;;;;;5056863;28;20260;-81
2022/11/03 04:36:19;;;;;;;12.82;2.90;;;10.10;99.90;;;;;;5057128;28;20273;-81
2022/11/03 04:38:46;;;;;;;11.55;3.28;;;10.10;99.90;;;;;;5056870;28;20178;-81
2022/11/03 04:41:19;;;;;;;7.60;2.57;;;10.10;99.90;;;;;;5055817;28;20197;-82
2022/11/03 04:43:45;;;;;;;6.10;2.63;;;10.20;99.90;;;;;;5054959;28;20471;-81
2022/11/03 04:46:14;;;;;;;8.23;2.63;;;10.20;99.90;;;;;;5039198;28;20182;-81
2022/11/03 04:48:40;;;;;;;8.45;2.63;;;10.20;99.90;;;;;;5056733;28;20535;-81
2022/11/03 04:51:16;;;;;;;7.00;2.80;;;10.20;99.90;;;;;;5038670;28;20189;-81
2022/11/03 04:54:05;;;;;;;7.65;2.35;;;10.20;99.90;;;;;;5054766;28;20430;-81
2022/11/03 04:56:32;;;;;;;12.15;2.47;;;10.20;99.90;;;;;;5055997;28;20181;-81
2022/11/03 04:58:58;;;;;;;6.47;2.28;;;10.30;99.90;;;;;;5055247;28;20272;-81
2022/11/03 05:01:24;;;;;;;7.87;3.10;;;10.30;99.90;;;;;;5055553;28;20708;-82
2022/11/03 05:03:52;;;;;;;4.87;2.47;;;10.40;99.90;;;;;;5056020;28;20486;-81
2022/11/03 05:06:28;;;;;;;15.00;4.15;;;10.40;99.90;;;;;;5056523;28;20396;-81
2022/11/03 05:09:04;;;;;;;12.73;2.70;;;10.40;99.90;;;;;;5038566;28;20288;-81
2022/11/03 05:11:35;;;;;;;8.75;2.40;;;10.40;99.90;;;;;;5055965;28;20211;-80
2022/11/03 05:14:05;;;;;;;6.15;2.20;;;10.40;99.90;;;;;;5056169;28;20196;-81
2022/11/03 05:16:31;;;;;;;8.52;2.72;;;10.50;99.90;;;;;;5054468;28;20188;-81
2022/11/03 05:18:57;;;;;;;7.10;2.67;;;10.50;99.90;;;;;;5054903;28;20177;-81
2022/11/03 05:21:25;;;;;;;13.67;2.83;;;10.50;99.90;;;;;;5054944;28;20190;-81
2022/11/03 05:24:00;;;;;;;7.30;2.20;;;10.50;99.90;;;;;;5055990;28;20467;-81
2022/11/03 05:26:35;;;;;;;12.10;2.88;;;10.60;99.90;;;;;;5054796;28;20199;-81
2022/11/03 05:29:02;;;;;;;4.32;2.42;;;10.60;99.90;;;;;;5054796;28;20196;-81
2022/11/03 05:31:29;;;;;;;7.47;2.55;;;10.60;99.90;;;;;;5056023;28;20631;-81
2022/11/03 05:34:01;;;;;;;8.43;2.28;;;10.60;99.90;;;;;;5054469;28;20253;-81
2022/11/03 05:36:29;;;;;;;8.95;2.90;;;10.70;99.90;;;;;;5054232;28;20268;-81
2022/11/03 05:39:00;;;;;;;9.05;2.83;;;10.70;99.90;;;;;;5056419;28;20173;-81
2022/11/03 05:41:28;;;;;;;8.50;2.58;;;10.70;99.90;;;;;;5056001;28;20255;-81
2022/11/03 05:44:11;;;;;;;7.10;2.55;;;10.70;99.90;;;;;;5055673;28;20201;-81
2022/11/03 05:46:37;;;;;;;10.77;3.00;;;10.70;99.90;;;;;;5054141;28;20174;-81
2022/11/03 05:49:05;;;;;;;7.00;2.20;;;10.70;99.90;;;;;;5054214;28;20189;-81
2022/11/03 05:51:38;;;;;;;7.72;2.45;;;10.70;99.90;;;;;;5055051;28;20400;-81
2022/11/03 05:54:14;;;;;;;7.50;2.83;;;10.70;99.90;;;;;;5055021;28;20260;-81
2022/11/03 05:56:40;;;;;;;10.07;2.80;;;10.70;99.90;;;;;;5055015;28;20392;-81
2022/11/03 05:59:10;;;;;;;8.23;2.20;;;10.70;99.90;;;;;;5053969;28;20515;-81
2022/11/03 06:01:38;;;;;;;6.35;2.55;;;10.80;99.90;;;;;;5053548;28;20240;-81
2022/11/03 06:04:27;;;;;;;6.43;2.30;;;10.70;99.90;;;;;;5055237;28;20596;-81
2022/11/03 06:06:57;;;;;;;5.97;2.40;;;10.80;99.90;;;;;;5054062;28;20428;-81
2022/11/03 06:09:25;;;;;;;8.88;2.45;;;10.80;99.90;;;;;;5054914;28;20475;-81
2022/11/03 06:11:55;;;;;;;11.27;2.50;;;10.80;99.90;;;;;;5054660;28;20169;-82
2022/11/03 06:14:25;;;;;;;4.27;2.30;;;10.80;99.90;;;;;;5054810;28;20412;-80
2022/11/03 06:17:12;;;;;;;8.00;2.72;;;10.80;99.90;;;;;;5036714;28;20482;-81
2022/11/03 06:19:46;;;;;;;7.38;2.42;;;10.80;99.90;;;;;;5055011;28;20237;-81
2022/11/03 06:22:26;;;;;;;6.10;2.15;;;10.80;99.90;;;;;;5055990;28;20165;-80
2022/11/03 06:24:58;;;;;;;8.13;2.27;;;10.70;99.90;;;;;;5053471;28;20193;-81
2022/11/03 06:27:26;;;;;;;6.77;2.30;;;10.70;99.90;;;;;;5054935;28;20396;-81
2022/11/03 06:30:02;;;;;;;7.75;2.13;;;10.80;99.90;;;;;;5054715;28;20817;-81
2022/11/03 06:32:29;;;;;;;10.18;2.63;;;10.80;99.90;;;;;;5054539;28;20185;-81
2022/11/03 06:34:57;;;;;;;10.80;3.47;;;10.80;99.90;;;;;;5055086;28;20181;-81
2022/11/03 06:37:26;;;;;;;6.53;2.15;;;10.80;99.90;;;;;;5054350;28;20246;-78
2022/11/03 06:40:15;;;;;;;7.20;2.38;;;10.80;99.90;;;;;;5054415;28;20184;-78
2022/11/03 06:42:41;;;;;;;7.03;2.63;;;10.80;99.90;;;;;;5054062;28;20216;-78
2022/11/03 06:45:19;;;;;;;8.65;2.58;;;10.80;99.90;;;;;;5052590;28;20216;-78
2022/11/03 06:47:45;;;;;;;7.20;2.23;;;10.90;99.90;;;;;;5054647;28;20557;-78
2022/11/03 06:50:32;;;;;;;10.10;2.20;;;10.80;99.90;;;;;;5053689;28;21000;-78
2022/11/03 06:53:02;;;;;;;9.20;2.63;;;10.90;99.90;;;;;;5054971;28;20404;-78
2022/11/03 06:55:30;;;;;;;5.75;2.80;;;10.90;99.90;;;;;;5054828;28;20485;-78
2022/11/03 06:58:12;;;;;;;5.87;2.30;;;10.80;99.90;;;;;;5053650;28;20242;-78
2022/11/03 07:00:41;;;;;;;8.40;2.38;;;10.90;99.90;;;;;;5054852;28;20468;-78
2022/11/03 07:03:19;;;;;;;5.50;3.03;;;10.90;99.90;;;;;;5053672;28;20206;-78
2022/11/03 07:05:44;;;;;;;9.73;2.45;;;10.90;99.90;;;;;;5053242;28;20458;-78
2022/11/03 07:08:34;;;;;;;5.60;2.53;;;10.90;99.90;;;;;;5055500;28;20764;-78
2022/11/03 07:11:06;;;;;;;10.23;3.20;;;11.00;99.90;;;;;;5053602;28;20183;-78
2022/11/03 07:13:33;;;;;;;11.33;3.50;;;11.00;99.90;;;;;;5053227;28;20473;-79
2022/11/03 07:15:59;;;;;;;7.75;3.00;;;11.10;99.90;;;;;;5054527;28;20408;-79
2022/11/03 07:18:27;;;;;;;5.87;2.67;;;11.20;99.90;;;;;;5053714;28;20725;-78
2022/11/03 07:20:54;;;;;;;9.87;3.43;;;11.20;99.90;;;;;;5054187;28;20180;-79
2022/11/03 07:23:29;;;;;;;5.10;2.20;;;11.30;99.90;;;;;;5053479;28;20459;-80
2022/11/03 07:25:58;;;;;;;6.93;2.72;;;11.40;99.90;;;;;;5054456;28;20454;-80
2022/11/03 07:28:38;;;;;;;11.40;3.23;;;11.40;99.90;;;;;;5054292;28;20177;-80
2022/11/03 07:31:17;;;;;;;8.67;3.10;;;11.40;99.90;;;;;;5054612;28;20448;-80
2022/11/03 07:33:43;;;;;;;9.30;3.00;;;11.50;99.90;;;;;;5053917;28;20399;-80
2022/11/03 07:36:14;;;;;;;7.57;3.00;;;11.60;99.90;;;;;;5053229;28;20789;-80
2022/11/03 07:38:42;;;;;;;6.30;2.50;;;11.70;99.90;;;;;;5054255;28;20166;-80
2022/11/03 07:41:11;;;;;;;6.83;2.60;;;11.80;99.90;;;;;;5053456;28;20916;-80
2022/11/03 07:43:37;;;;;;;5.73;2.70;;;11.90;99.90;;;;;;5053529;28;20466;-80
2022/11/03 07:46:04;;;;;;;7.57;2.43;;;12.00;99.90;;;;;;5036808;28;20808;-80
2022/11/03 07:48:46;;;;;;;5.20;2.67;;;12.00;99.90;;;;;;5055349;28;20400;-80
2022/11/03 07:51:21;;;;;;;3.80;2.07;;;12.10;99.90;;;;;;5058150;28;20856;-81
2022/11/03 07:53:49;;;;;;;10.90;3.50;;;12.10;99.90;;;;;;5056524;28;20423;-80
2022/11/03 07:56:25;;;;;;;7.23;2.93;;;12.10;99.90;;;;;;5056536;28;20985;-80
2022/11/03 07:58:59;;;;;;;9.40;5.90;;;12.10;99.90;;;;;;5057789;28;20420;-80
2022/11/03 08:01:26;;;;;;;6.53;2.73;;;12.10;99.90;;;;;;5057685;28;20463;-80
2022/11/03 08:03:57;;;;;;;6.33;2.00;;;12.20;99.90;;;;;;5057468;28;20485;-80
2022/11/03 08:06:23;;;;;;;6.33;3.60;;;12.20;99.90;;;;;;5056525;28;20420;-80
2022/11/03 08:08:48;;;;;;;6.80;2.70;;;12.20;99.90;;;;;;5056321;28;20928;-80
2022/11/03 08:11:14;;;;;;;7.03;2.47;;;12.30;99.90;;;;;;5057691;28;20227;-80
2022/11/03 08:13:39;;;;;;;10.00;2.87;;;12.30;99.90;;;;;;5038906;28;20247;-80
2022/11/03 08:16:05;;;;;;;7.37;3.20;;;12.30;99.90;;;;;;5055809;28;20209;-80
2022/11/03 08:18:31;;;;;;;6.73;3.13;;;12.30;99.90;;;;;;5055957;28;20638;-81
2022/11/03 08:20:56;;;;;;;12.90;3.73;;;12.30;99.90;;;;;;5039067;28;20177;-80
2022/11/03 08:23:22;;;;;;;9.90;2.93;;;12.40;99.90;;;;;;5057239;28;20261;-80
2022/11/03 08:25:47;;;;;;;8.80;2.93;;;12.40;99.90;;;;;;5055654;28;20186;-81
2022/11/03 08:28:13;;;;;;;5.27;2.73;;;12.40;99.90;;;;;;5057400;28;20170;-80
2022/11/03 08:30:39;;;;;;;7.30;3.13;;;12.40;99.90;;;;;;5056856;28;20181;-80
2022/11/03 08:33:04;;;;;;;7.10;2.50;;;12.50;99.90;;;;;;5039331;28;20255;-80
2022/11/03 08:35:30;;;;;;;8.17;3.60;;;12.50;99.90;;;;;;5054560;28;20182;-79
2022/11/03 08:37:55;;;;;;;5.20;2.93;;;12.50;99.90;;;;;;5036774;28;20293;-81
2022/11/03 08:40:21;;;;;;;8.23;3.23;;;12.50;99.90;;;;;;5036706;28;20619;-80
2022/11/03 08:42:46;;;;;;;7.37;2.60;;;12.60;99.90;;;;;;5035461;28;20264;-80
2022/11/03 08:45:12;;;;;;;6.87;3.00;;;12.60;99.90;;;;;;5052250;28;20228;-81
2022/11/03 08:47:38;;;;;;;6.17;2.80;;;12.60;99.90;;;;;;5036550;28;20186;-81
2022/11/03 08:50:05;;;;;;;10.37;3.00;;;12.70;99.90;;;;;;5036765;28;20182;-81
2022/11/03 08:52:30;;;;;;;6.57;2.70;;;12.70;99.90;;;;;;5035534;28;20224;-81
2022/11/03 08:54:56;;;;;;;10.43;3.50;;;12.70;99.90;;;;;;5051850;28;20838;-81
2022/11/03 08:57:22;;;;;;;8.33;3.80;;;12.80;99.90;;;;;;5051965;28;20213;-82
2022/11/03 08:59:48;;;;;;;10.47;3.00;;;12.80;99.90;;;;;;5038117;28;20182;-81
2022/11/03 09:02:13;;;;;;;10.07;3.00;;;12.90;99.90;;;;;;5034113;28;20230;-81
2022/11/03 09:04:39;;;;;;;7.17;2.83;;;12.90;99.90;;;;;;5025581;28;20468;-81
2022/11/03 09:07:04;;;;;;;7.80;2.90;;;13.00;99.90;;;;;;5018931;28;20186;-81
2022/11/03 09:09:30;;;;;;;10.43;3.37;;;13.00;99.90;;;;;;5019392;28;20249;-81
2022/11/03 09:11:55;;;;;;;7.73;2.57;;;13.10;99.90;;;;;;5036711;28;20185;-81
2022/11/03 09:14:21;;;;;;;9.80;2.60;;;13.10;99.90;;;;;;5034777;28;20186;-81
2022/11/03 09:16:47;;;;;;;10.50;2.83;;;13.20;99.90;;;;;;5034917;28;20654;-81
2022/11/03 09:19:12;;;;;;;6.17;2.60;;;13.20;99.90;;;;;;5017907;28;20185;-81
2022/11/03 09:21:38;;;;;;;4.23;2.30;;;13.30;99.90;;;;;;5002202;28;20193;-81
2022/11/03 09:24:04;;;;;;;7.27;2.90;;;13.30;99.90;;;;;;5034824;28;20217;-81
2022/11/03 09:26:29;;;;;;;12.23;2.50;;;13.30;99.90;;;;;;5035136;28;20221;-81
2022/11/03 09:28:55;;;;;;;7.83;2.83;;;13.40;99.90;;;;;;5036693;28;20492;-81
2022/11/03 09:31:21;;;;;;;5.40;2.57;;;13.50;99.90;;;;;;5001974;28;20190;-81
2022/11/03 09:33:46;;;;;;;11.90;3.93;;;13.60;99.90;;;;;;5018640;28;20186;-82
2022/11/03 09:36:12;;;;;;;9.53;2.77;;;13.60;99.90;;;;;;5003529;28;20508;-81
2022/11/03 09:38:38;;;;;;;8.17;2.63;;;13.60;99.90;;;;;;5001223;28;20305;-81
2022/11/03 09:41:04;;;;;;;8.17;2.43;;;13.70;99.90;;;;;;5030712;28;20178;-82
2022/11/03 09:43:31;;;;;;;11.80;2.20;;;13.70;99.90;;;;;;5031115;28;20202;-81
2022/11/03 09:45:57;;;;;;;4.17;2.23;;;13.80;99.90;;;;;;5018773;28;20424;-82
2022/11/03 09:48:24;;;;;;;5.63;2.50;;;13.80;99.90;;;;;;5034350;28;20412;-82
2022/11/03 09:50:53;;;;;;;5.70;1.80;;;13.80;99.90;;;;;;5035246;28;20405;-81
2022/11/03 09:53:20;;;;;;;5.57;2.07;;;13.80;99.90;;;;;;5035038;28;20766;-81
2022/11/03 09:55:45;;;;;;;9.00;2.83;;;13.90;99.90;;;;;;5034640;28;20787;-81
2022/11/03 09:58:16;;;;;;;6.43;2.00;;;13.90;99.90;;;;;;5034096;28;20508;-81
2022/11/03 10:00:42;;;;;;;7.73;2.33;;;13.90;99.90;;;;;;5035225;28;20638;-81
2022/11/03 10:03:13;;;;;;;10.83;2.37;;;14.00;99.90;;;;;;5034361;28;20878;-82
2022/11/03 10:05:39;;;;;;;3.33;1.90;;;14.00;99.90;;;;;;5035689;28;20409;-81
2022/11/03 10:08:10;;;;;;;9.50;3.10;;;14.10;99.90;;;;;;5035672;28;20825;-81
2022/11/03 10:10:36;;;;;;;8.47;2.90;;;14.10;99.90;;;;;;5033765;28;20425;-81
2022/11/03 10:13:07;;;;;;;14.30;3.20;;;14.20;99.90;;;;;;5034872;28;20428;-81
2022/11/03 10:15:34;;;;;;;6.43;1.90;;;14.30;99.90;;;;;;5035434;28;20397;-81
2022/11/03 10:18:00;;;;;;;6.87;2.03;;;14.30;99.90;;;;;;5035477;28;20768;-82
2022/11/03 10:20:28;;;;;;;20.57;4.70;;;14.40;99.90;;;;;;5018251;28;20457;-80
2022/11/03 10:22:54;;;;;;;5.20;1.93;;;14.40;99.90;;;;;;5034468;28;20461;-81
2022/11/03 10:25:35;;;;;;;5.97;1.63;;;14.50;99.90;;;;;;5035531;28;20764;-81
2022/11/03 10:28:22;;;;;;;4.90;1.93;;;14.50;99.90;;;;;;5035298;28;20500;-80
2022/11/03 10:31:00;;;;;;;3.90;1.70;;;14.50;99.90;;;;;;5030619;28;20423;-82
2022/11/03 10:33:36;;;;;;;3.47;1.90;;;14.60;99.90;;;;;;5030004;28;20900;-81
2022/11/03 10:36:28;;;;;;;6.47;1.83;;;14.60;99.90;;;;;;5034060;28;20436;-81
2022/11/03 10:38:55;;;;;;;4.73;1.37;;;14.60;99.90;;;;;;5032760;28;20435;-81
2022/11/03 10:41:28;;;;;;;7.13;2.13;;;14.70;99.90;;;;;;5033405;28;20808;-81
2022/11/03 10:44:13;;;;;;;7.10;3.70;;;14.70;99.90;;;;;;5033326;28;20443;-81
2022/11/03 10:46:40;;;;;;;5.63;1.90;;;14.60;99.90;;;;;;5032622;28;20838;-80
2022/11/03 10:49:17;;;;;;;3.20;1.60;;;14.60;99.90;;;;;;5033865;28;20744;-81
2022/11/03 10:51:46;;;;;;;7.90;2.23;;;14.60;99.90;;;;;;5034282;28;20911;-81
2022/11/03 10:54:17;;;;;;;4.80;2.93;;;14.60;99.90;;;;;;5038814;28;20424;-81
2022/11/03 10:56:43;;;;;;;4.60;2.00;;;14.60;99.90;;;;;;5033371;28;20418;-80
2022/11/03 10:59:23;;;;;;;2.97;1.70;;;14.50;99.90;;;;;;5033522;28;20395;-81
2022/11/03 11:01:48;;;;;;;3.93;1.83;;;14.50;99.90;;;;;;5033063;28;20633;-80
2022/11/03 11:04:16;;;;;;;7.33;2.13;;;14.40;99.90;;;;;;5032719;28;20559;-80
2022/11/03 11:06:42;;;;;;;4.60;1.63;;;14.50;99.90;;;;;;5034581;28;20533;-81
2022/11/03 11:09:11;;;;;;;7.90;2.17;;;14.40;99.90;;;;;;5032719;28;20499;-81
2022/11/03 11:11:36;;;;;;;3.83;1.60;;;14.40;99.90;;;;;;5032938;28;20421;-81
2022/11/03 11:14:24;;;;;;;8.23;2.17;;;14.40;99.90;;;;;;5016666;28;21014;-80
2022/11/03 11:16:58;;;;;;;8.50;2.60;;;14.40;99.90;;;;;;5032685;28;20217;-81
2022/11/03 11:19:25;;;;;;;5.87;2.20;;;14.20;99.90;;;;;;5033168;28;20428;-81
2022/11/03 11:21:54;;;;;;;6.87;2.87;;;14.20;99.90;;;;;;5032176;28;20424;-81
2022/11/03 11:24:41;;;;;;;5.37;2.47;;;14.20;99.90;;;;;;5036409;28;20468;-81
2022/11/03 11:27:39;;;;;;;6.87;2.07;;;14.20;99.90;;;;;;5046363;28;20423;-82
2022/11/03 11:30:26;;;;;;;4.50;1.70;;;14.20;99.90;;;;;;5046976;28;20469;-80
2022/11/03 11:33:20;;;;;;;3.73;2.27;;;14.20;99.90;;;;;;5036292;28;20467;-81
2022/11/03 11:35:45;;;;;;;6.93;1.97;;;14.10;99.90;;;;;;5038266;28;20484;-82
2022/11/03 11:38:48;;;;;;;2.77;1.90;;;14.20;99.90;;;;;;5038099;28;20419;-80
2022/11/03 11:41:14;;;;;;;6.93;2.03;;;14.20;99.90;;;;;;5036827;28;20213;-80
2022/11/03 11:43:39;;;;;;;9.50;2.37;;;14.20;99.90;;;;;;5020562;28;20466;-81
2022/11/03 11:46:32;;;;;;;8.23;2.10;;;14.10;99.90;;;;;;5036739;28;20555;-81
2022/11/03 11:49:04;;;;;;;4.80;2.10;;;14.10;99.90;;;;;;5036857;28;20178;-81
2022/11/03 11:51:39;;;;;;;11.93;2.10;;;14.00;99.90;;;;;;5038976;28;20412;-80
2022/11/03 11:54:07;;;;;;;6.90;2.13;;;13.90;99.90;;;;;;5021992;28;20409;-80
2022/11/03 11:56:33;;;;;;;9.13;2.13;;;13.90;99.90;;;;;;5041629;28;20919;-81
2022/11/03 11:58:59;;;;;;;6.23;2.90;;;13.90;99.90;;;;;;5036817;28;20532;-79
2022/11/03 12:01:36;;;;;;;6.23;2.40;;;13.90;99.90;;;;;;5020261;28;20500;-80
2022/11/03 12:04:07;;;;;;;7.43;2.40;;;14.00;99.90;;;;;;5037742;28;20239;-81
2022/11/03 12:06:37;;;;;;;9.83;4.00;;;14.00;99.90;;;;;;5037905;28;20462;-80
2022/11/03 12:09:28;;;;;;;11.50;2.97;;;14.00;99.90;;;;;;5040329;28;20436;-80
2022/11/03 12:11:58;;;;;;;6.30;2.03;;;14.00;99.90;;;;;;5038250;28;20463;-81
2022/11/03 12:14:30;;;;;;;8.60;2.50;;;14.10;99.90;;;;;;5036471;28;20862;-81
2022/11/03 12:16:57;;;;;;;3.90;2.10;;;14.10;99.90;;;;;;5037171;28;20409;-81
2022/11/03 12:19:43;;;;;;;5.40;3.07;;;14.20;99.90;;;;;;5036922;28;20401;-80
2022/11/03 12:22:11;;;;;;;5.97;2.13;;;14.20;99.90;;;;;;5036233;28;20408;-81
2022/11/03 12:24:44;;;;;;;7.73;2.87;;;14.20;99.90;;;;;;5037385;28;20427;-81
2022/11/03 12:27:36;;;;;;;4.77;2.30;;;14.10;99.90;;;;;;5036793;28;20760;-81
2022/11/03 12:30:16;;;;;;;3.93;1.83;;;14.20;99.90;;;;;;5036854;28;20395;-81
2022/11/03 12:32:42;;;;;;;7.90;2.00;;;14.20;99.90;;;;;;5035702;28;20415;-81
2022/11/03 12:35:08;;;;;;;4.47;1.70;;;14.10;99.90;;;;;;5035050;28;20470;-79
2022/11/03 12:37:37;;;;;;;3.87;1.97;;;14.10;99.90;;;;;;5037271;28;20424;-85
2022/11/03 12:40:04;;;;;;;5.77;2.43;;;14.10;99.90;;;;;;5034695;28;20425;-85
2022/11/03 12:42:29;;;;;;;5.37;2.47;;;14.10;99.90;;;;;;5036440;28;20902;-86
2022/11/03 12:44:55;;;;;;;5.80;1.77;;;14.10;99.90;;;;;;5017853;28;20507;-85
2022/11/03 12:47:21;;;;;;;4.33;1.80;;;14.10;99.90;;;;;;5018804;28;20236;-85
2022/11/03 12:49:46;;;;;;;4.70;1.70;;;14.00;99.90;;;;;;5034993;28;20229;-84
2022/11/03 12:52:12;;;;;;;4.57;2.27;;;14.00;99.90;;;;;;5035246;28;20229;-84
2022/11/03 12:54:38;;;;;;;5.93;1.83;;;14.00;99.90;;;;;;5020194;28;20186;-85
2022/11/03 12:57:04;;;;;;;7.30;2.40;;;14.00;99.90;;;;;;5035087;28;20186;-84
2022/11/03 12:59:29;;;;;;;3.50;1.67;;;14.00;99.90;;;;;;5041301;28;20412;-85
2022/11/03 13:01:55;;;;;;;3.10;1.90;;;14.10;99.90;;;;;;5018177;28;20226;-85
2022/11/03 13:04:21;;;;;;;6.43;2.00;;;14.10;99.90;;;;;;5034587;28;20213;-85
2022/11/03 13:06:46;;;;;;;6.80;1.80;;;14.10;99.90;;;;;;5034571;28;20186;-86
2022/11/03 13:09:12;;;;;;;4.27;1.60;;;14.20;99.90;;;;;;5017513;28;20264;-85
2022/11/03 13:14:21;;;;;;;5.20;2.10;;;14.30;99.90;;;;;;5037014;28;20223;-85
2022/11/03 13:16:47;;;;;;;4.10;2.30;;;14.40;99.90;;;;;;5021317;28;20520;-85
2022/11/03 13:19:12;;;;;;;9.70;2.27;;;14.50;99.90;;;;;;5037370;28;20197;-86
2022/11/03 13:21:38;;;;;;;8.07;2.43;;;14.40;99.90;;;;;;5018645;28;20237;-87